Time;durP1;ratioP1;P1;durP2;ratioP2;P2;SDS_P1;SDS_P2;PMS_P1;PMS_P2;Temp;Humidity;BMP_temperature;BMP_pressure;BME280_temperature;BME280_humidity;BME280_pressure;Samples;Min_cycle;Max_cycle;Signal;HPM_P1;HPM_P2
2023/09/13 00:01:38;;;;;;;19.45;17.45;;;;;;;20.55;100.00;99195.09;5051289;28;20125;-91
2023/09/13 00:04:03;;;;;;;21.65;17.77;;;;;;;20.62;100.00;99212.03;5051003;28;20032;-91
2023/09/13 00:06:29;;;;;;;19.88;17.92;;;;;;;20.62;100.00;99211.22;5050921;28;20112;-90
2023/09/13 00:08:54;;;;;;;19.05;17.05;;;;;;;20.57;100.00;99208.19;5050897;28;20021;-91
2023/09/13 00:11:19;;;;;;;19.58;17.50;;;;;;;20.40;100.00;99183.31;5050872;28;20028;-92
2023/09/13 00:13:45;;;;;;;20.20;18.08;;;;;;;20.51;100.00;99206.09;5051174;28;20025;-92
2023/09/13 00:16:11;;;;;;;20.42;18.35;;;;;;;20.43;100.00;99206.78;5050817;28;20117;-91
2023/09/13 00:18:36;;;;;;;19.00;17.05;;;;;;;20.41;100.00;99206.94;5050694;28;20036;-91
2023/09/13 00:21:02;;;;;;;20.38;18.38;;;;;;;20.39;100.00;99198.34;5050824;28;20021;-91
2023/09/13 00:23:27;;;;;;;19.10;17.30;;;;;;;20.36;100.00;99200.44;5050644;28;20475;-91
2023/09/13 00:25:53;;;;;;;19.02;17.05;;;;;;;20.25;100.00;99184.72;5051066;28;20021;-90
2023/09/13 00:28:18;;;;;;;20.08;17.98;;;;;;;20.24;100.00;99197.13;5050793;28;20449;-92
2023/09/13 00:30:43;;;;;;;19.38;17.42;;;;;;;20.26;100.00;99196.97;5050439;28;20025;-92
2023/09/13 00:33:09;;;;;;;20.40;18.05;;;;;;;20.12;100.00;99180.59;5050740;28;20036;-90
2023/09/13 00:35:35;;;;;;;20.33;17.30;;;;;;;20.23;100.00;99194.63;5050369;28;20063;-92
2023/09/13 00:38:00;;;;;;;22.02;18.65;;;;;;;20.19;100.00;99194.91;5050581;28;20049;-92
2023/09/13 00:40:26;;;;;;;20.80;18.58;;;;;;;20.21;100.00;99193.94;5050821;28;20033;-91
2023/09/13 00:42:51;;;;;;;21.48;19.20;;;;;;;20.18;100.00;99202.97;5029127;28;20184;-90
2023/09/13 00:45:16;;;;;;;21.63;19.38;;;;;;;20.04;100.00;99169.06;5017219;28;20038;-90
2023/09/13 00:47:43;;;;;;;20.40;18.38;;;;;;;20.15;100.00;99195.34;5016878;28;20030;-91
2023/09/13 00:50:13;;;;;;;21.20;18.58;;;;;;;20.13;100.00;99192.00;5017031;28;20547;-91
2023/09/13 00:52:39;;;;;;;20.67;18.35;;;;;;;20.10;100.00;99197.56;5016959;28;20060;-91
2023/09/13 00:55:06;;;;;;;20.88;18.75;;;;;;;20.05;100.00;99190.06;5017129;28;20377;-90
2023/09/13 00:57:33;;;;;;;21.00;18.80;;;;;;;20.06;100.00;99196.22;5016807;28;20132;-91
2023/09/13 01:00:00;;;;;;;21.38;19.15;;;;;;;20.03;100.00;99194.69;5016829;28;20295;-91
2023/09/13 01:02:25;;;;;;;21.13;18.90;;;;;;;20.02;100.00;99195.66;5016516;28;20041;-91
2023/09/13 01:04:50;;;;;;;21.48;19.38;;;;;;;19.93;100.00;99189.44;5016501;28;20025;-90
2023/09/13 01:07:16;;;;;;;22.17;19.88;;;;;;;19.94;100.00;99193.72;5016887;28;20025;-92
2023/09/13 01:09:42;;;;;;;21.27;18.98;;;;;;;19.91;100.00;99191.34;5016315;28;20026;-91
2023/09/13 01:12:07;;;;;;;20.30;18.30;;;;;;;19.85;100.00;99194.59;5033313;28;20120;-91
2023/09/13 01:14:34;;;;;;;23.05;20.67;;;;;;;19.85;100.00;99194.59;5049695;28;20043;-90
2023/09/13 01:17:15;;;;;;;21.13;18.77;;;;;;;19.83;100.00;99190.41;5054224;28;20023;-90
2023/09/13 01:19:59;;;;;;;21.73;18.90;;;;;;;19.82;100.00;99179.00;5053814;28;20480;-91
2023/09/13 01:22:49;;;;;;;21.67;19.38;;;;;;;19.81;100.00;99187.91;5053863;28;20017;-90
2023/09/13 01:25:15;;;;;;;22.20;19.52;;;;;;;19.77;100.00;99183.88;5037428;28;20120;-90
2023/09/13 01:27:55;;;;;;;22.52;19.30;;;;;;;19.74;100.00;99188.63;5053546;28;20116;-91
2023/09/13 01:30:23;;;;;;;21.83;18.75;;;;;;;19.71;100.00;99186.25;5053862;28;20036;-90
2023/09/13 01:32:50;;;;;;;21.67;19.38;;;;;;;19.68;100.00;99188.22;5032602;28;20153;-91
2023/09/13 01:35:16;;;;;;;22.33;20.13;;;;;;;19.62;100.00;99172.06;5016247;28;20040;-91
2023/09/13 01:37:41;;;;;;;22.50;20.27;;;;;;;19.66;100.00;99186.66;5015612;28;20132;-91
2023/09/13 01:40:08;;;;;;;21.17;19.08;;;;;;;19.56;100.00;99167.34;5016286;28;20049;-91
2023/09/13 01:42:37;;;;;;;20.77;18.60;;;;;;;19.60;100.00;99174.84;5015784;28;20037;-91
2023/09/13 01:45:04;;;;;;;22.60;20.30;;;;;;;19.41;100.00;99154.53;5015917;28;20029;-92
2023/09/13 01:47:30;;;;;;;21.05;18.88;;;;;;;19.58;100.00;99183.88;5015881;28;20538;-91
2023/09/13 01:49:57;;;;;;;22.33;20.02;;;;;;;19.57;100.00;99179.56;5032663;28;20025;-90
2023/09/13 01:52:23;;;;;;;23.33;20.80;;;;;;;19.47;100.00;99161.09;5016080;28;20041;-91
2023/09/13 01:54:48;;;;;;;22.70;20.45;;;;;;;19.54;100.00;99169.25;5014642;28;20698;-90
2023/09/13 01:57:13;;;;;;;21.60;19.40;;;;;;;19.48;100.00;99167.19;5015974;28;20492;-91
2023/09/13 01:59:39;;;;;;;22.63;20.33;;;;;;;19.37;100.00;99150.50;5015531;28;20083;-90
2023/09/13 02:02:04;;;;;;;24.70;21.15;;;;;;;19.44;100.00;99174.56;5015918;28;20128;-91
2023/09/13 02:04:33;;;;;;;23.42;20.10;;;;;;;19.33;100.00;99151.75;5044729;28;20037;-91
2023/09/13 02:07:00;;;;;;;22.88;20.55;;;;;;;19.34;100.00;99156.09;5069958;28;20119;-90
2023/09/13 02:09:25;;;;;;;23.35;20.95;;;;;;;19.41;100.00;99161.63;5053227;28;20025;-91
2023/09/13 02:11:51;;;;;;;24.13;21.63;;;;;;;19.38;100.00;99157.47;5053289;28;20535;-91
2023/09/13 02:14:16;;;;;;;25.27;22.60;;;;;;;19.41;100.00;99170.38;5053350;28;20029;-91
2023/09/13 02:16:41;;;;;;;22.58;20.20;;;;;;;19.35;100.00;99157.75;5036168;28;20033;-92
2023/09/13 02:19:07;;;;;;;21.77;19.48;;;;;;;19.37;100.00;99157.59;5052988;28;20288;-91
2023/09/13 02:21:32;;;;;;;23.70;21.02;;;;;;;19.38;100.00;99168.03;5069592;28;20039;-92
2023/09/13 02:23:58;;;;;;;23.50;20.70;;;;;;;19.33;100.00;99164.13;5069616;28;20171;-91
2023/09/13 02:26:24;;;;;;;22.77;20.38;;;;;;;19.32;100.00;99173.84;5069622;28;20035;-91
2023/09/13 02:29:45;;;;;;;23.48;20.98;;;;;;;19.25;100.00;99171.91;5052781;28;20020;-90
2023/09/13 02:32:15;;;;;;;22.70;20.33;;;;;;;19.14;100.00;99162.31;5035349;28;20048;-91
2023/09/13 02:34:43;;;;;;;24.45;21.95;;;;;;;19.15;100.00;99167.47;5069187;28;20061;-91
2023/09/13 02:37:52;;;;;;;22.38;20.02;;;;;;;19.11;100.00;99171.34;5052901;28;20025;-92
2023/09/13 02:40:37;;;;;;;22.80;20.42;;;;;;;19.11;100.00;99173.97;4933854;29;20058;-91
2023/09/13 02:43:03;;;;;;;23.88;21.48;;;;;;;19.06;100.00;99173.56;4918591;29;20047;-91
2023/09/13 02:45:29;;;;;;;22.80;20.55;;;;;;;19.09;100.00;99172.47;4934142;29;20039;-91
2023/09/13 02:47:54;;;;;;;23.90;21.50;;;;;;;19.05;100.00;99179.81;4918606;29;20026;-92
2023/09/13 02:50:20;;;;;;;24.63;22.10;;;;;;;19.00;100.00;99178.53;4934155;29;20035;-91
2023/09/13 02:52:45;;;;;;;23.95;21.55;;;;;;;18.96;100.00;99172.69;4918005;29;20059;-91
2023/09/13 02:55:30;;;;;;;24.27;21.70;;;;;;;18.89;100.00;99146.03;4934461;29;20042;-91
2023/09/13 02:57:56;;;;;;;23.90;21.33;;;;;;;18.97;100.00;99163.84;4880777;29;20068;-92
2023/09/13 03:00:21;;;;;;;24.92;22.33;;;;;;;18.94;100.00;99158.81;4880639;29;20036;-91
2023/09/13 03:02:47;;;;;;;24.88;21.80;;;;;;;18.92;100.00;99158.97;4880726;29;20528;-91
2023/09/13 03:05:12;;;;;;;23.42;21.02;;;;;;;18.90;100.00;99165.34;4864579;29;20097;-92
2023/09/13 03:07:38;;;;;;;24.30;21.83;;;;;;;18.81;100.00;99152.97;4880336;29;20091;-92
2023/09/13 03:10:03;;;;;;;25.35;22.70;;;;;;;18.75;100.00;99146.44;4877622;29;20036;-91
2023/09/13 03:12:29;;;;;;;26.42;23.08;;;;;;;18.75;100.00;99150.84;4917899;29;20520;-92
2023/09/13 03:14:56;;;;;;;27.52;24.63;;;;;;;18.74;100.00;99147.38;4933705;29;20035;-91
2023/09/13 03:17:21;;;;;;;27.05;23.17;;;;;;;18.68;100.00;99143.47;4917878;29;20114;-90
2023/09/13 03:19:46;;;;;;;25.58;22.90;;;;;;;18.73;100.00;99145.72;4917372;29;20491;-90
2023/09/13 03:22:12;;;;;;;26.42;23.00;;;;;;;18.80;100.00;99161.88;4917805;29;20560;-90
2023/09/13 03:24:37;;;;;;;25.25;22.67;;;;;;;18.79;100.00;99157.53;4989958;28;20427;-91
2023/09/13 03:27:03;;;;;;;25.10;22.52;;;;;;;18.82;100.00;99155.47;4991513;28;20037;-91
2023/09/13 03:29:28;;;;;;;25.73;23.00;;;;;;;18.85;100.00;99149.91;4966610;28;20506;-91
2023/09/13 03:31:53;;;;;;;25.75;21.83;;;;;;;18.85;100.00;99142.00;4971789;28;20405;-91
2023/09/13 03:34:19;;;;;;;26.23;22.63;;;;;;;18.73;100.00;99118.50;4972081;28;20474;-91
2023/09/13 03:36:44;;;;;;;26.10;23.40;;;;;;;18.80;100.00;99138.94;4971683;28;20034;-91
2023/09/13 03:39:09;;;;;;;26.13;23.42;;;;;;;18.88;100.00;99148.81;4971585;28;20134;-91
2023/09/13 03:41:35;;;;;;;26.73;24.02;;;;;;;18.77;100.00;99139.22;4999912;28;20178;-91
2023/09/13 03:44:00;;;;;;;27.65;24.55;;;;;;;18.81;100.00;99147.69;4994766;28;20129;-91
2023/09/13 03:46:26;;;;;;;24.70;22.23;;;;;;;18.67;100.00;99128.63;4994399;28;20043;-91
2023/09/13 03:49:13;;;;;;;24.48;22.00;;;;;;;18.65;100.00;99124.44;4994920;28;20535;-95
2023/09/13 03:51:39;;;;;;;28.85;24.83;;;;;;;18.64;100.00;99117.50;4954710;28;20043;-89
2023/09/13 03:54:04;;;;;;;25.48;22.77;;;;;;;18.74;100.00;99141.28;4955024;28;20045;-89
2023/09/13 03:56:30;;;;;;;27.58;23.45;;;;;;;18.64;100.00;99126.25;4954972;28;20109;-89
2023/09/13 03:58:55;;;;;;;27.33;24.52;;;;;;;18.54;100.00;99112.22;4954726;28;20023;-89
2023/09/13 04:01:21;;;;;;;25.33;22.75;;;;;;;18.68;100.00;99140.84;5022189;28;20061;-89
2023/09/13 04:03:46;;;;;;;26.58;23.80;;;;;;;18.64;100.00;99128.88;5013183;28;20029;-90
2023/09/13 04:06:11;;;;;;;26.70;24.05;;;;;;;18.69;100.00;99141.66;5013175;28;20065;-90
2023/09/13 04:08:37;;;;;;;27.23;23.77;;;;;;;18.64;100.00;99147.34;5012980;28;20025;-89
2023/09/13 04:11:02;;;;;;;26.58;23.67;;;;;;;18.63;100.00;99142.22;5013096;28;20299;-89
2023/09/13 04:13:28;;;;;;;27.25;24.23;;;;;;;18.64;100.00;99146.50;5013275;28;20021;-89
2023/09/13 04:15:53;;;;;;;27.02;24.13;;;;;;;18.65;100.00;99132.34;5029372;28;20244;-89
2023/09/13 04:18:18;;;;;;;27.08;24.20;;;;;;;18.64;100.00;99135.97;5012481;28;20049;-89
2023/09/13 04:20:47;;;;;;;30.27;26.13;;;;;;;18.62;100.00;99141.34;5012793;28;20036;-90
2023/09/13 04:23:13;;;;;;;28.08;25.13;;;;;;;18.58;100.00;99132.06;5040263;28;20106;-89
2023/09/13 04:25:38;;;;;;;25.98;23.15;;;;;;;18.54;100.00;99130.66;5067186;28;20480;-90
2023/09/13 04:28:04;;;;;;;29.95;24.75;;;;;;;18.57;100.00;99132.19;5050727;28;20051;-89
2023/09/13 04:30:31;;;;;;;28.65;25.73;;;;;;;18.52;100.00;99122.03;5051483;28;20062;-89
2023/09/13 04:32:58;;;;;;;26.10;23.13;;;;;;;18.55;100.00;99120.97;5050072;28;20119;-91
2023/09/13 04:35:23;;;;;;;27.67;24.70;;;;;;;18.55;100.00;99127.06;5050507;28;20438;-90
2023/09/13 04:37:49;;;;;;;27.95;25.02;;;;;;;18.53;100.00;99126.34;5050407;28;20029;-90
2023/09/13 04:40:14;;;;;;;26.50;23.73;;;;;;;18.50;100.00;99123.13;5050710;28;20508;-92
2023/09/13 04:42:54;;;;;;;27.83;24.63;;;;;;;18.57;100.00;99140.09;5050856;28;20495;-91
2023/09/13 04:45:19;;;;;;;28.15;25.00;;;;;;;18.60;100.00;99142.47;5050856;28;20025;-91
2023/09/13 04:47:45;;;;;;;27.75;24.75;;;;;;;18.64;100.00;99134.16;5050341;28;20082;-91
2023/09/13 04:50:10;;;;;;;26.85;24.15;;;;;;;18.57;100.00;99122.47;5050607;28;20032;-91
2023/09/13 04:52:35;;;;;;;26.88;24.05;;;;;;;18.70;100.00;99132.81;5050567;28;20065;-91
2023/09/13 04:55:01;;;;;;;26.15;23.40;;;;;;;18.77;100.00;99139.22;5050541;28;20036;-91
2023/09/13 04:57:26;;;;;;;27.90;25.20;;;;;;;18.81;100.00;99143.25;5050732;28;20068;-91
2023/09/13 04:59:52;;;;;;;28.02;25.02;;;;;;;18.80;100.00;99136.31;5050448;28;20029;-91
2023/09/13 05:02:17;;;;;;;29.83;24.10;;;;;;;18.92;100.00;99135.22;5050484;28;20024;-91
2023/09/13 05:04:43;;;;;;;26.38;23.73;;;;;;;19.00;100.00;99146.88;5050099;28;20535;-91
2023/09/13 05:07:08;;;;;;;29.67;24.35;;;;;;;19.05;100.00;99147.31;5050335;28;20025;-91
2023/09/13 05:09:36;;;;;;;28.85;25.02;;;;;;;19.02;100.00;99132.59;5050258;28;20027;-91
2023/09/13 05:12:02;;;;;;;29.25;24.60;;;;;;;19.17;100.00;99149.69;5050402;28;20033;-91
2023/09/13 05:14:27;;;;;;;31.25;25.63;;;;;;;19.22;100.00;99143.16;5050436;28;20032;-91
2023/09/13 05:16:53;;;;;;;28.10;24.80;;;;;;;19.23;100.00;99135.09;5050175;28;20112;-91
2023/09/13 05:19:18;;;;;;;26.10;23.33;;;;;;;19.42;100.00;99150.09;5051480;28;20028;-91
2023/09/13 05:21:44;;;;;;;25.63;22.75;;;;;;;19.57;100.00;99146.06;5050189;28;20468;-91
2023/09/13 05:24:09;;;;;;;26.38;23.58;;;;;;;19.70;100.00;99135.22;5050231;28;20025;-91
2023/09/13 05:26:35;;;;;;;28.15;25.15;;;;;;;19.81;100.00;99137.69;5050534;28;20029;-91
2023/09/13 05:29:02;;;;;;;30.42;25.35;;;;;;;19.91;100.00;99135.03;5052548;28;20537;-91
2023/09/13 05:31:27;;;;;;;26.17;23.40;;;;;;;20.04;100.00;99140.81;5054139;28;20028;-91
2023/09/13 05:33:53;;;;;;;28.52;25.25;;;;;;;20.04;100.00;99118.84;5053850;28;20033;-91
2023/09/13 05:36:18;;;;;;;25.30;22.60;;;;;;;20.40;100.00;99146.25;5054015;28;20075;-91
2023/09/13 05:38:43;;;;;;;28.70;22.83;;;;;;;20.45;100.00;99125.50;5053423;28;20472;-91
2023/09/13 05:41:10;;;;;;;29.70;24.55;;;;;;;20.75;100.00;99144.72;5054062;28;20120;-91
2023/09/13 05:43:37;;;;;;;25.33;22.83;;;;;;;20.91;100.00;99152.84;5053772;28;20085;-91
2023/09/13 05:46:03;;;;;;;26.00;23.23;;;;;;;21.08;100.00;99149.38;5053577;28;20079;-91
2023/09/13 05:48:28;;;;;;;23.92;21.50;;;;;;;21.16;100.00;99157.38;5053719;28;20021;-91
2023/09/13 05:50:54;;;;;;;26.75;23.33;;;;;;;21.28;100.00;99144.75;5053417;28;20071;-91
2023/09/13 05:53:22;;;;;;;25.17;22.58;;;;;;;21.33;100.00;99141.69;5053567;28;20029;-91
2023/09/13 05:55:47;;;;;;;22.27;20.17;;;;;;;21.50;100.00;99146.13;5053279;28;20385;-91
2023/09/13 05:58:13;;;;;;;27.88;22.20;;;;;;;21.61;100.00;99147.69;5053393;28;20021;-90
2023/09/13 06:00:41;;;;;;;24.73;22.23;;;;;;;21.67;100.00;99147.09;5053250;28;20029;-91
2023/09/13 06:03:07;;;;;;;24.38;21.98;;;;;;;21.74;100.00;99141.97;5053445;28;20029;-91
2023/09/13 06:05:32;;;;;;;23.20;20.75;;;;;;;21.80;100.00;99138.72;5015627;28;20501;-91
2023/09/13 06:07:58;;;;;;;26.95;21.02;;;;;;;22.01;100.00;99146.31;5015379;28;20132;-91
2023/09/13 06:10:23;;;;;;;21.00;19.00;;;;;;;22.37;100.00;99147.00;4992600;28;20034;-91
2023/09/13 06:12:48;;;;;;;22.35;19.92;;;;;;;22.69;100.00;99153.44;4976681;28;20042;-91
2023/09/13 06:15:14;;;;;;;23.02;20.60;;;;;;;22.98;100.00;99150.41;4976899;28;20069;-91
2023/09/13 06:17:39;;;;;;;22.15;19.95;;;;;;;23.17;100.00;99158.06;4988249;28;20026;-91
2023/09/13 06:20:05;;;;;;;20.85;18.75;;;;;;;23.39;100.00;99165.41;4992600;28;20057;-91
2023/09/13 06:22:34;;;;;;;21.67;18.67;;;;;;;23.61;99.97;99163.91;4976474;28;20034;-91
2023/09/13 06:25:20;;;;;;;19.75;17.90;;;;;;;23.85;98.86;99179.06;4992454;28;20124;-92
2023/09/13 06:28:06;;;;;;;19.67;17.67;;;;;;;24.08;97.25;99171.19;4915889;29;20036;-92
2023/09/13 06:30:31;;;;;;;22.10;19.73;;;;;;;24.08;95.67;99163.22;4917066;29;20119;-92
2023/09/13 06:32:57;;;;;;;20.27;18.42;;;;;;;24.13;96.13;99168.84;4900600;29;20480;-90
2023/09/13 06:35:22;;;;;;;20.92;18.92;;;;;;;24.44;96.16;99184.13;4915883;29;20083;-91
2023/09/13 06:37:48;;;;;;;22.92;19.50;;;;;;;24.55;94.15;99167.75;4915596;29;20122;-91
2023/09/13 06:40:13;;;;;;;21.80;18.02;;;;;;;24.73;93.54;99177.31;4916058;28;20062;-90
2023/09/13 06:42:39;;;;;;;20.00;18.15;;;;;;;24.93;93.85;99180.38;4956878;28;20054;-91
2023/09/13 06:45:05;;;;;;;21.20;19.00;;;;;;;25.04;90.63;99158.69;4970105;28;20039;-92
2023/09/13 06:47:31;;;;;;;19.23;17.42;;;;;;;25.16;91.31;99169.78;4973207;28;20064;-91
2023/09/13 06:49:57;;;;;;;20.05;17.98;;;;;;;25.23;90.54;99154.75;4956571;28;20533;-92
2023/09/13 06:52:22;;;;;;;24.17;18.65;;;;;;;25.28;89.70;99147.88;4971545;28;20482;-91
2023/09/13 06:54:50;;;;;;;19.73;17.73;;;;;;;25.36;89.22;99145.13;4956708;28;20474;-91
2023/09/13 06:57:16;;;;;;;20.33;18.38;;;;;;;25.42;89.05;99150.78;4941100;28;20097;-91
2023/09/13 07:00:02;;;;;;;18.73;16.55;;;;;;;25.66;89.91;99149.72;5026825;28;20037;-91
2023/09/13 07:02:28;;;;;;;18.48;16.77;;;;;;;26.04;89.54;99162.06;5031276;28;20037;-91
2023/09/13 07:05:13;;;;;;;17.17;15.48;;;;;;;26.49;87.86;99178.13;5014602;28;20452;-91
2023/09/13 07:11:28;;;;;;;16.05;14.55;;;;;;;27.73;82.43;99193.09;4915281;29;20453;-91
2023/09/13 07:21:46;;;;;;;18.45;16.45;;;;;;;28.25;81.73;99189.16;4785648;29;20085;-92
2023/09/13 07:25:25;;;;;;;19.10;16.75;;;;;;;28.62;80.66;99199.69;4749728;30;20374;-92
2023/09/13 07:56:47;;;;;;;17.02;15.45;;;;;;;33.10;65.11;99201.03;4748519;30;20409;-92
2023/09/13 08:00:04;;;;;;;16.77;15.38;;;;;;;31.84;67.41;99157.41;4745800;30;20130;-91
2023/09/13 08:06:47;;;;;;;17.63;15.73;;;;;;;30.74;71.87;99205.25;4730934;30;20956;-93
2023/09/13 08:10:46;;;;;;;;;;;;;;;;;;;;;
2023/09/13 08:16:02;;;;;;;18.30;16.02;;;;;;;29.42;73.71;99190.88;5129877;27;20346;-92
2023/09/13 08:18:28;;;;;;;18.38;16.42;;;;;;;29.13;74.20;99202.78;5107833;28;20089;-92
2023/09/13 08:20:53;;;;;;;18.50;16.23;;;;;;;28.95;76.05;99192.59;5080254;28;20032;-92
2023/09/13 08:23:19;;;;;;;15.90;14.25;;;;;;;28.85;75.59;99192.97;5070932;28;20043;-92
2023/09/13 08:25:45;;;;;;;17.48;15.73;;;;;;;28.66;76.45;99190.22;5087982;28;20107;-92
2023/09/13 08:28:10;;;;;;;16.38;14.77;;;;;;;28.41;75.54;99188.03;5087669;28;20040;-92
2023/09/13 08:30:35;;;;;;;15.77;14.32;;;;;;;28.31;76.17;99182.16;5087161;28;20471;-91
2023/09/13 08:33:02;;;;;;;16.30;14.70;;;;;;;28.30;77.08;99178.66;5087710;28;20036;-91
2023/09/13 08:35:27;;;;;;;16.13;14.63;;;;;;;28.34;77.51;99181.78;5065902;28;20037;-92
2023/09/13 08:37:53;;;;;;;15.98;14.48;;;;;;;28.31;76.63;99177.63;5049561;28;20419;-91
2023/09/13 08:40:18;;;;;;;16.42;14.73;;;;;;;28.23;77.28;99177.81;5046427;28;20131;-92
2023/09/13 08:42:46;;;;;;;16.25;14.60;;;;;;;28.21;77.26;99171.81;5049467;28;20071;-92
2023/09/13 08:45:35;;;;;;;15.15;13.80;;;;;;;28.20;78.06;99177.38;5051943;28;20083;-93
2023/09/13 08:48:21;;;;;;;14.85;13.45;;;;;;;28.10;78.57;99150.94;5049307;28;20036;-92
2023/09/13 08:50:50;;;;;;;16.25;14.63;;;;;;;27.88;76.99;99131.44;5009514;28;20428;-91
2023/09/13 08:53:16;;;;;;;15.93;14.15;;;;;;;27.99;77.04;99163.03;5025963;28;20087;-92
2023/09/13 08:56:06;;;;;;;16.75;13.40;;;;;;;27.82;77.93;99151.78;4999975;28;20033;-93
2023/09/13 08:58:53;;;;;;;16.42;14.93;;;;;;;27.69;77.86;99159.69;4988446;28;20038;-91
2023/09/13 09:01:59;;;;;;;15.77;14.25;;;;;;;27.24;79.34;99148.38;4986749;28;20047;-92
2023/09/13 09:05:07;;;;;;;15.43;14.02;;;;;;;27.23;80.47;99161.94;4918494;29;20505;-92
2023/09/13 09:07:52;;;;;;;15.88;14.45;;;;;;;27.18;80.84;99159.00;4872483;29;20128;-92
2023/09/13 09:10:19;;;;;;;16.95;15.23;;;;;;;26.84;79.24;99099.00;4848811;29;20042;-92
2023/09/13 09:12:48;;;;;;;16.05;14.65;;;;;;;27.27;79.70;99156.03;4832906;29;20054;-92
2023/09/13 09:15:16;;;;;;;15.98;14.45;;;;;;;27.28;79.21;99156.84;4847903;29;20053;-91
2023/09/13 09:17:44;;;;;;;16.48;14.77;;;;;;;27.32;79.51;99158.13;4862450;29;20069;-91
2023/09/13 09:20:10;;;;;;;16.25;14.65;;;;;;;27.20;80.68;99151.63;4864354;29;20080;-92
2023/09/13 09:22:37;;;;;;;19.63;15.23;;;;;;;27.23;80.79;99160.09;4856275;29;20084;-92
2023/09/13 09:25:02;;;;;;;16.40;14.68;;;;;;;27.27;82.17;99139.16;4856800;29;20483;-92
2023/09/13 09:27:30;;;;;;;16.08;14.60;;;;;;;27.42;82.78;99150.59;4835294;29;20141;-92
2023/09/13 09:30:06;;;;;;;16.60;14.95;;;;;;;27.49;81.78;99156.03;4836963;29;20063;-92
2023/09/13 09:32:35;;;;;;;17.17;15.43;;;;;;;27.56;80.45;99143.53;4841687;29;20064;-92
2023/09/13 09:35:01;;;;;;;15.65;14.15;;;;;;;27.50;80.42;99145.13;4870443;29;20048;-92
2023/09/13 09:37:35;;;;;;;15.70;14.30;;;;;;;27.54;80.05;99146.38;4901124;29;20081;-92
2023/09/13 09:40:01;;;;;;;18.73;15.23;;;;;;;27.55;80.08;99141.84;4959531;28;20034;-91
2023/09/13 09:42:29;;;;;;;16.40;14.85;;;;;;;27.70;80.73;99152.50;4972456;28;20077;-91
2023/09/13 09:44:55;;;;;;;16.23;14.70;;;;;;;27.69;80.62;99137.47;4972810;28;20049;-92
2023/09/13 09:47:21;;;;;;;15.55;14.23;;;;;;;27.85;80.79;99163.94;4973133;28;20051;-91
2023/09/13 09:50:10;;;;;;;15.52;13.98;;;;;;;27.90;81.45;99169.56;4972950;28;20027;-92
2023/09/13 09:52:35;;;;;;;17.60;15.90;;;;;;;27.93;82.21;99182.53;4934516;29;20042;-91
2023/09/13 09:55:03;;;;;;;17.10;15.20;;;;;;;27.93;82.53;99185.22;4908358;29;20059;-90
2023/09/13 09:57:29;;;;;;;16.42;14.93;;;;;;;27.85;81.80;99174.66;4915617;29;20127;-91
2023/09/13 09:59:55;;;;;;;17.02;15.32;;;;;;;27.77;82.24;99182.81;4925488;29;20123;-91
2023/09/13 10:02:27;;;;;;;16.55;14.85;;;;;;;27.78;83.57;99176.47;4975738;28;20652;-91
2023/09/13 10:04:52;;;;;;;16.38;14.98;;;;;;;27.71;83.78;99151.47;4967569;28;20027;-91
2023/09/13 10:07:18;;;;;;;16.58;15.15;;;;;;;27.93;82.92;99176.34;4956369;28;20199;-91
2023/09/13 10:09:45;;;;;;;18.13;16.38;;;;;;;27.98;83.42;99184.63;4956644;28;20042;-92
2023/09/13 10:12:12;;;;;;;17.02;15.32;;;;;;;27.88;83.46;99171.59;4956438;28;20584;-91
2023/09/13 10:14:41;;;;;;;15.95;14.50;;;;;;;28.02;83.63;99192.09;4994517;28;20057;-91
2023/09/13 10:17:09;;;;;;;17.55;15.82;;;;;;;27.80;82.75;99150.31;5011553;28;20037;-92
2023/09/13 10:19:35;;;;;;;15.85;14.38;;;;;;;28.06;82.39;99188.00;5011600;28;20531;-91
2023/09/13 10:22:41;;;;;;;17.05;15.55;;;;;;;28.07;82.22;99181.63;5011482;28;20038;-93
2023/09/13 10:25:31;;;;;;;16.65;15.15;;;;;;;27.84;82.13;99132.84;4972479;28;20046;-91
2023/09/13 10:28:18;;;;;;;16.27;14.80;;;;;;;28.12;82.20;99172.16;4972126;28;20043;-91
2023/09/13 10:30:49;;;;;;;17.98;16.27;;;;;;;28.12;82.51;99178.34;4952902;29;20119;-92
2023/09/13 10:33:15;;;;;;;16.92;15.27;;;;;;;28.17;81.94;99189.28;4936839;29;20507;-92
2023/09/13 10:35:46;;;;;;;16.65;15.15;;;;;;;28.21;82.17;99192.41;4936887;29;20077;-92
2023/09/13 10:38:20;;;;;;;17.50;15.73;;;;;;;28.22;81.55;99192.19;4936007;29;20050;-91
2023/09/13 10:40:55;;;;;;;16.48;15.07;;;;;;;28.24;83.25;99189.34;4952874;29;20376;-91
2023/09/13 10:43:24;;;;;;;18.80;16.80;;;;;;;28.27;83.46;99178.22;4952835;29;20035;-91
2023/09/13 10:45:50;;;;;;;18.05;16.35;;;;;;;28.31;83.51;99182.97;4936700;29;20035;-91
2023/09/13 10:48:17;;;;;;;18.10;16.15;;;;;;;28.34;83.39;99185.28;4936699;29;20035;-92
2023/09/13 10:51:24;;;;;;;18.33;16.55;;;;;;;28.28;82.14;99194.13;4939190;29;20035;-92
2023/09/13 10:53:50;;;;;;;19.25;17.27;;;;;;;28.27;83.74;99194.28;4879899;29;20408;-92
2023/09/13 10:56:15;;;;;;;18.40;16.60;;;;;;;28.20;83.89;99180.06;4908709;29;20048;-92
2023/09/13 10:58:45;;;;;;;18.35;16.63;;;;;;;28.31;85.00;99195.56;4914588;29;20044;-91
2023/09/13 11:01:12;;;;;;;17.45;15.90;;;;;;;28.34;84.82;99196.00;4896115;29;20044;-91
2023/09/13 11:03:38;;;;;;;19.30;17.42;;;;;;;28.40;85.36;99201.59;4898763;29;20119;-91
2023/09/13 11:06:26;;;;;;;19.73;17.80;;;;;;;28.46;84.07;99195.47;4914246;29;20040;-92
2023/09/13 11:08:54;;;;;;;18.85;17.05;;;;;;;28.53;84.30;99189.13;4899834;29;20047;-92
2023/09/13 11:11:22;;;;;;;19.15;17.35;;;;;;;28.62;83.96;99191.66;4897207;29;20048;-91
2023/09/13 11:14:11;;;;;;;20.30;18.30;;;;;;;28.64;83.87;99182.38;4900384;29;20067;-91
2023/09/13 11:16:39;;;;;;;18.70;16.95;;;;;;;28.56;83.80;99174.50;4916573;29;20063;-92
2023/09/13 11:19:09;;;;;;;18.52;16.85;;;;;;;28.59;82.52;99180.28;4917752;29;20035;-91
2023/09/13 11:22:30;;;;;;;18.85;17.10;;;;;;;28.57;82.62;99186.88;4917186;29;20465;-91
2023/09/13 11:25:16;;;;;;;18.75;16.30;;;;;;;28.31;80.58;99182.16;4894560;29;20040;-91
2023/09/13 11:28:02;;;;;;;18.20;16.50;;;;;;;28.24;81.07;99181.31;4857603;29;20128;-92
2023/09/13 11:30:47;;;;;;;17.67;16.02;;;;;;;28.24;80.67;99181.31;4845048;29;20059;-91
2023/09/13 11:33:58;;;;;;;18.13;15.77;;;;;;;28.19;80.92;99187.25;4876357;29;20060;-91
2023/09/13 11:36:26;;;;;;;17.67;16.10;;;;;;;28.19;81.11;99187.25;4843530;29;20038;-92
2023/09/13 11:38:53;;;;;;;18.77;16.95;;;;;;;28.10;80.74;99175.84;4878768;29;20040;-92
2023/09/13 11:41:18;;;;;;;17.15;15.63;;;;;;;28.10;81.11;99183.88;4894492;29;20043;-91
2023/09/13 11:43:44;;;;;;;18.38;16.33;;;;;;;28.13;80.68;99195.25;4878890;29;20040;-92
2023/09/13 11:46:11;;;;;;;18.45;16.63;;;;;;;28.12;81.50;99186.38;4894247;29;20043;-91
2023/09/13 11:48:40;;;;;;;16.98;15.52;;;;;;;28.18;80.61;99185.59;4863169;29;20535;-92
2023/09/13 11:51:48;;;;;;;17.23;15.57;;;;;;;28.29;80.90;99193.09;4900394;29;20464;-93
2023/09/13 11:54:35;;;;;;;17.42;15.60;;;;;;;28.28;79.99;99199.47;4875786;29;20044;-92
2023/09/13 11:57:03;;;;;;;18.58;16.77;;;;;;;28.29;80.93;99195.75;4894340;29;20048;-92
2023/09/13 11:59:32;;;;;;;18.88;17.17;;;;;;;28.25;81.20;99194.50;4894592;29;20040;-92
2023/09/13 12:01:57;;;;;;;20.25;16.77;;;;;;;28.19;81.23;99195.31;4913162;29;20139;-92
2023/09/13 12:04:44;;;;;;;19.90;17.15;;;;;;;28.13;81.10;99200.59;4881476;29;20032;-92
2023/09/13 12:07:30;;;;;;;17.92;16.27;;;;;;;28.07;81.08;99197.69;4885424;29;20041;-92
2023/09/13 12:09:58;;;;;;;19.17;17.25;;;;;;;28.11;82.79;99203.47;4879397;29;20051;-93
2023/09/13 12:12:45;;;;;;;18.13;16.42;;;;;;;28.20;80.83;99206.84;4875650;29;20044;-93
2023/09/13 12:15:14;;;;;;;18.38;16.65;;;;;;;28.29;79.65;99205.66;4874209;29;20053;-91
2023/09/13 12:17:40;;;;;;;17.92;16.23;;;;;;;28.39;80.35;99206.13;4875320;29;20040;-91